createdAt,value
2018-09-02T00:00:53.703Z,101164.78
2018-09-02T00:03:22.213Z,101166.13
2018-09-02T00:05:50.765Z,101169.06
2018-09-02T00:08:19.181Z,101166.38
2018-09-02T00:10:47.842Z,101163.94
2018-09-02T00:13:16.494Z,101161.25
2018-09-02T00:15:45.087Z,101162.34
2018-09-02T00:18:13.727Z,101159.72
2018-09-02T00:20:42.299Z,101149.58
2018-09-02T00:23:10.755Z,101156.62
2018-09-02T00:25:39.207Z,101154.77
2018-09-02T00:28:07.743Z,101156.37
2018-09-02T00:30:36.225Z,101158.19
2018-09-02T00:33:04.763Z,101149.52
2018-09-02T00:35:33.358Z,101146.36
2018-09-02T00:38:01.881Z,101147.80
2018-09-02T00:40:30.324Z,101141.64
2018-09-02T00:42:58.809Z,101143.61
2018-09-02T00:45:27.273Z,101138.76
2018-09-02T00:47:55.805Z,101140.67
2018-09-02T00:50:24.899Z,101137.41
2018-09-02T00:52:53.491Z,101133.38
2018-09-02T00:55:22.106Z,101133.44
2018-09-02T00:57:50.510Z,101135.09
2018-09-02T01:00:19.135Z,101137.98
2018-09-02T01:02:47.653Z,101139.76
2018-09-02T01:05:16.147Z,101141.88
2018-09-02T01:07:44.741Z,101140.60
2018-09-02T01:10:13.266Z,101137.91
2018-09-02T01:12:41.897Z,101142.26
2018-09-02T01:15:10.426Z,101138.47
2018-09-02T01:17:39.012Z,101142.51
2018-09-02T01:20:07.434Z,101145.48
2018-09-02T01:22:35.867Z,101145.14
2018-09-02T01:25:04.428Z,101145.48
2018-09-02T01:27:32.882Z,101147.89
2018-09-02T01:30:01.351Z,101144.45
2018-09-02T01:32:29.891Z,101140.97
2018-09-02T01:34:58.318Z,101142.79
2018-09-02T01:37:26.847Z,101140.97
2018-09-02T01:39:55.623Z,101136.69
2018-09-02T01:42:24.231Z,101135.03
2018-09-02T01:44:52.691Z,101136.81
2018-09-02T01:47:21.178Z,101126.19
2018-09-02T01:49:49.814Z,101121.90
2018-09-02T01:52:18.626Z,101126.59
2018-09-02T01:54:47.406Z,101131.21
2018-09-02T01:57:16.073Z,101128.21
2018-09-02T01:59:45.862Z,101129.55
2018-09-02T02:02:20.225Z,101135.67
2018-09-02T02:04:48.800Z,101143.31
2018-09-02T02:07:17.268Z,101137.63
2018-09-02T02:09:45.692Z,101137.09
2018-09-02T02:12:14.268Z,101137.94
2018-09-02T02:14:42.728Z,101139.45
2018-09-02T02:17:11.212Z,101138.30
2018-09-02T02:19:39.732Z,101132.08
2018-09-02T02:22:08.379Z,101122.42
2018-09-02T02:24:36.822Z,101125.89
2018-09-02T02:27:05.701Z,101121.08
2018-09-02T02:29:34.230Z,101125.89
2018-09-02T02:32:03.903Z,101124.23
2018-09-02T02:34:32.346Z,101128.77
2018-09-02T02:37:01.442Z,101124.61
2018-09-02T02:39:31.022Z,101126.02
2018-09-02T02:42:00.041Z,101127.80
2018-09-02T02:44:28.534Z,101130.90
2018-09-02T02:46:57.023Z,101129.34
2018-09-02T02:49:25.634Z,101126.98
2018-09-02T02:51:54.144Z,101130.80
2018-09-02T02:54:22.608Z,101126.98
2018-09-02T02:56:51.056Z,101121.02
2018-09-02T02:59:19.602Z,101119.98
2018-09-02T03:01:48.213Z,101115.95
2018-09-02T03:04:16.728Z,101119.36
2018-09-02T03:06:45.270Z,101118.58
2018-09-02T03:09:13.690Z,101115.39
2018-09-02T03:11:42.499Z,101111.11
2018-09-02T03:14:11.630Z,101106.04
2018-09-02T03:16:40.335Z,101103.67
2018-09-02T03:19:09.304Z,101106.73
2018-09-02T03:21:37.756Z,101100.12
2018-09-02T03:24:06.381Z,101100.72
2018-09-02T03:26:34.974Z,101096.21
2018-09-02T03:29:03.502Z,101105.00
2018-09-02T03:31:32.013Z,101104.22
2018-09-02T03:34:00.525Z,101095.59
2018-09-02T03:36:29.076Z,101095.28
2018-09-02T03:38:57.531Z,101094.69
2018-09-02T03:41:25.964Z,101105.44
2018-09-02T03:43:54.418Z,101105.72
2018-09-02T03:46:23.017Z,101113.00
2018-09-02T03:48:51.490Z,101096.31
2018-09-02T03:51:20.066Z,101093.63
2018-09-02T03:53:48.554Z,101097.13
2018-09-02T03:56:17.103Z,101092.22
2018-09-02T03:58:45.564Z,101087.66
2018-09-02T04:01:14.070Z,101087.72
2018-09-02T04:03:42.496Z,101086.24
2018-09-02T04:06:10.954Z,101088.09
2018-09-02T04:08:39.394Z,101080.56
2018-09-02T04:11:07.872Z,101086.19
2018-09-02T04:13:36.350Z,101083.25
2018-09-02T04:16:04.902Z,101087.96
2018-09-02T04:18:33.846Z,101085.77
2018-09-02T04:21:04.286Z,101087.28
2018-09-02T04:23:33.021Z,101085.66
2018-09-02T04:26:02.248Z,101083.50
2018-09-02T04:28:31.035Z,101080.03
2018-09-02T04:30:59.621Z,101080.15
2018-09-02T04:33:28.110Z,101083.48
2018-09-02T04:35:56.545Z,101083.86
2018-09-02T04:38:25.060Z,101081.67
2018-09-02T04:40:53.637Z,101081.98
2018-09-02T04:43:22.168Z,101080.58
2018-09-02T04:45:50.678Z,101075.14
2018-09-02T04:48:19.702Z,101082.78
2018-09-02T04:50:48.284Z,101075.92
2018-09-02T04:53:16.766Z,101079.52
2018-09-02T04:55:45.314Z,101079.52
2018-09-02T04:58:13.780Z,101083.55
2018-09-02T05:00:42.296Z,101078.92
2018-09-02T05:03:11.047Z,101079.57
2018-09-02T05:05:39.529Z,101085.45
2018-09-02T05:08:07.989Z,101085.20
2018-09-02T05:10:36.417Z,101086.07
2018-09-02T05:13:04.929Z,101084.22
2018-09-02T05:15:33.486Z,101090.38
2018-09-02T05:18:01.973Z,101089.28
2018-09-02T05:20:30.498Z,101080.45
2018-09-02T05:22:59.137Z,101085.26
2018-09-02T05:25:27.700Z,101088.73
2018-09-02T05:27:56.171Z,101090.45
2018-09-02T05:30:24.857Z,101088.23
2018-09-02T05:32:53.486Z,101087.98
2018-09-02T05:35:21.923Z,101084.45
2018-09-02T05:37:50.298Z,101082.55
2018-09-02T05:40:18.769Z,101078.83
2018-09-02T05:42:47.334Z,101079.08
2018-09-02T05:45:15.850Z,101077.98
2018-09-02T05:47:44.280Z,101081.27
2018-09-02T05:50:12.683Z,101076.14
2018-09-02T05:52:41.161Z,101076.20
2018-09-02T05:55:09.769Z,101074.91
2018-09-02T05:57:38.312Z,101076.52
2018-09-02T06:00:07.082Z,101078.69
2018-09-02T06:02:35.530Z,101065.39
2018-09-02T06:05:04.135Z,101070.41
2018-09-02T06:07:32.534Z,101072.71
2018-09-02T06:10:00.998Z,101072.91
2018-09-02T06:12:30.547Z,101071.45
2018-09-02T06:14:59.101Z,101068.00
2018-09-02T06:17:27.640Z,101067.59
2018-09-02T06:19:56.206Z,101069.44
2018-09-02T06:22:24.820Z,101066.19
2018-09-02T06:24:53.190Z,101070.27
2018-09-02T06:27:21.640Z,101067.20
2018-09-02T06:29:50.156Z,101062.33
2018-09-02T06:32:18.667Z,101068.09
2018-09-02T06:34:47.139Z,101074.44
2018-09-02T06:37:15.765Z,101076.95
2018-09-02T06:39:44.232Z,101069.81
2018-09-02T06:42:12.873Z,101076.34
2018-09-02T06:44:41.359Z,101073.53
2018-09-02T06:47:09.838Z,101076.16
2018-09-02T06:49:38.510Z,101077.14
2018-09-02T06:52:07.099Z,101082.51
2018-09-02T06:54:35.609Z,101079.30
2018-09-02T06:57:04.185Z,101080.08
2018-09-02T06:59:32.614Z,101083.55
2018-09-02T07:02:01.309Z,101084.67
2018-09-02T07:04:29.819Z,101084.42
2018-09-02T07:06:58.308Z,101085.14
2018-09-02T07:09:26.784Z,101089.11
2018-09-02T07:11:55.325Z,101082.45
2018-09-02T07:14:23.948Z,101076.55
2018-09-02T07:16:52.305Z,101086.73
2018-09-02T07:19:20.871Z,101082.70
2018-09-02T07:21:49.333Z,101075.67
2018-09-02T07:24:17.770Z,101078.92
2018-09-02T07:26:46.270Z,101083.27
2018-09-02T07:29:14.775Z,101084.89
2018-09-02T07:31:43.196Z,101090.77
2018-09-02T07:34:11.873Z,101088.39
2018-09-02T07:36:40.282Z,101094.80
2018-09-02T07:39:08.913Z,101093.45
2018-09-02T07:41:38.039Z,101098.10
2018-09-02T07:44:06.651Z,101102.67
2018-09-02T07:46:35.067Z,101102.20
2018-09-02T07:49:03.625Z,101098.64
2018-09-02T07:51:32.268Z,101102.72
2018-09-02T07:54:00.686Z,101104.49
2018-09-02T07:56:29.127Z,101107.34
2018-09-02T07:58:57.558Z,101106.42
2018-09-02T08:01:26.694Z,101100.33
2018-09-02T08:03:55.325Z,101105.00
2018-09-02T08:06:23.875Z,101108.05
2018-09-02T08:08:52.469Z,101099.98
2018-09-02T08:11:21.007Z,101108.05
2018-09-02T08:13:49.560Z,101101.74
2018-09-02T08:16:19.436Z,101099.73
2018-09-02T08:18:47.935Z,101099.42
2018-09-02T08:21:16.532Z,101092.97
2018-09-02T08:23:45.510Z,101093.47
2018-09-02T08:26:14.010Z,101095.28
2018-09-02T08:28:42.638Z,101082.42
2018-09-02T08:31:11.282Z,101081.38
2018-09-02T08:33:39.971Z,101073.58
2018-09-02T08:36:08.416Z,101081.19
2018-09-02T08:38:37.023Z,101086.30
2018-09-02T08:41:05.741Z,101086.05
2018-09-02T08:43:34.221Z,101065.91
2018-09-02T08:46:02.658Z,101067.56
2018-09-02T08:48:31.157Z,101084.59
2018-09-02T08:50:59.775Z,101081.41
2018-09-02T08:53:28.328Z,101072.31
2018-09-02T08:55:56.956Z,101075.53
2018-09-02T08:58:25.546Z,101080.84
2018-09-02T09:00:54.110Z,101081.09
2018-09-02T09:03:22.716Z,101072.38
2018-09-02T09:05:51.288Z,101065.34
2018-09-02T09:08:20.010Z,101074.50
2018-09-02T09:10:48.331Z,101073.16
2018-09-02T09:13:16.937Z,101068.59
2018-09-02T09:15:45.487Z,101068.54
2018-09-02T09:18:13.992Z,101069.33
2018-09-02T09:20:42.520Z,101061.99
2018-09-02T09:23:11.273Z,101058.53
2018-09-02T09:25:39.764Z,101063.55
2018-09-02T09:28:08.596Z,101065.53
2018-09-02T09:30:37.056Z,101060.09
2018-09-02T09:33:05.639Z,101057.66
2018-09-02T09:35:34.137Z,101056.06
2018-09-02T09:38:02.720Z,101068.63
2018-09-02T09:40:31.187Z,101062.08
2018-09-02T09:42:59.706Z,101063.67
2018-09-02T09:45:28.237Z,101059.59
2018-09-02T09:47:56.744Z,101062.03
2018-09-02T09:50:25.201Z,101052.33
2018-09-02T09:52:53.647Z,101052.27
2018-09-02T09:55:22.171Z,101049.89
2018-09-02T09:57:50.653Z,101049.39
2018-09-02T10:00:24.224Z,101053.52
2018-09-02T10:02:52.855Z,101053.05
2018-09-02T10:05:21.312Z,101054.86
2018-09-02T10:07:50.911Z,101047.77
2018-09-02T10:10:19.401Z,101038.06
2018-09-02T10:12:47.979Z,101034.52
2018-09-02T10:15:16.439Z,101025.32
2018-09-02T10:17:44.831Z,101029.04
2018-09-02T10:20:13.272Z,101026.36
2018-09-02T10:22:41.898Z,101026.36
2018-09-02T10:25:10.422Z,101024.45
2018-09-02T10:27:39.402Z,101025.49
2018-09-02T10:30:08.083Z,101021.16
2018-09-02T10:32:36.815Z,101025.44
2018-09-02T10:35:05.299Z,101022.70
2018-09-02T10:37:33.747Z,101023.98
2018-09-02T10:40:02.262Z,101017.69
2018-09-02T10:42:35.902Z,101021.71
2018-09-02T10:45:04.304Z,101011.28
2018-09-02T10:47:32.691Z,101011.28
2018-09-02T10:50:01.303Z,101004.82
2018-09-02T10:52:29.831Z,101006.41
2018-09-02T10:54:59.358Z,100997.99
2018-09-02T10:57:27.967Z,101001.45
2018-09-02T10:59:56.456Z,100989.33
2018-09-02T11:02:24.904Z,100987.73
2018-09-02T11:04:53.548Z,100990.11
2018-09-02T11:07:22.051Z,100982.73
2018-09-02T11:09:50.594Z,100974.17
2018-09-02T11:12:19.113Z,100979.84
2018-09-02T11:14:47.566Z,100973.08
2018-09-02T11:17:16.175Z,100978.08
2018-09-02T11:19:44.676Z,100968.19
2018-09-02T11:22:13.210Z,100966.91
2018-09-02T11:24:41.764Z,100965.92
2018-09-02T11:27:10.298Z,100964.27
2018-09-02T11:29:38.827Z,100959.77
2018-09-02T11:32:07.366Z,100959.16
2018-09-02T11:34:35.955Z,100955.01
2018-09-02T11:37:04.450Z,100949.39
2018-09-02T11:39:32.866Z,100951.73
2018-09-02T11:42:01.362Z,100955.80
2018-09-02T11:44:29.817Z,100940.97
2018-09-02T11:46:58.227Z,100941.97
2018-09-02T11:49:26.659Z,100945.37
2018-09-02T11:51:55.948Z,100948.84
2018-09-02T11:54:24.567Z,100946.97
2018-09-02T11:56:53.219Z,100950.62
2018-09-02T12:02:04.848Z,100939.75
2018-09-02T12:04:33.343Z,100946.47
2018-09-02T12:07:01.859Z,100944.34
2018-09-02T12:09:30.325Z,100950.02
2018-09-02T12:11:58.917Z,100932.20
2018-09-02T12:14:27.433Z,100936.23
2018-09-02T12:16:55.910Z,100934.95
2018-09-02T12:19:24.578Z,100941.84
2018-09-02T12:21:53.208Z,100942.22
2018-09-02T12:24:21.755Z,100940.12
2018-09-02T12:26:50.573Z,100937.94
2018-09-02T12:29:19.173Z,100944.16
2018-09-02T12:31:47.608Z,100944.96
2018-09-02T12:34:16.196Z,100940.31
2018-09-02T12:36:44.921Z,100947.40
2018-09-02T12:39:13.455Z,100944.41
2018-09-02T12:41:51.473Z,100944.41
2018-09-02T12:44:21.197Z,100935.78
2018-09-02T12:49:29.526Z,100940.00
2018-09-02T12:54:47.905Z,100935.01
2018-09-02T12:57:19.367Z,100940.12
2018-09-02T12:59:48.142Z,100936.41
2018-09-02T13:02:17.689Z,100935.13
2018-09-02T13:04:47.071Z,100929.14
2018-09-02T13:07:16.514Z,100934.38
2018-09-02T13:09:48.575Z,100936.29
2018-09-02T13:12:18.295Z,100929.02
2018-09-02T13:14:47.051Z,100918.27
2018-09-02T13:17:15.884Z,100919.02
2018-09-02T13:19:44.699Z,100923.83
2018-09-02T13:24:59.412Z,100913.42
2018-09-02T13:27:34.325Z,100912.14
2018-09-02T13:30:03.354Z,100910.80
2018-09-02T13:32:32.575Z,100909.24
2018-09-02T13:37:41.295Z,100909.33
2018-09-02T13:40:10.647Z,100913.92
2018-09-02T13:42:39.755Z,100911.73
2018-09-02T13:45:09.954Z,100899.65
2018-09-02T13:47:40.170Z,100899.33
2018-09-02T13:52:53.944Z,100888.41
2018-09-02T13:55:22.918Z,100886.44
2018-09-02T13:57:53.284Z,100882.90
2018-09-02T14:03:02.092Z,100874.64
2018-09-02T14:05:31.880Z,100867.36
2018-09-02T14:08:00.682Z,100860.36
2018-09-02T14:10:29.090Z,100862.48
2018-09-02T14:12:57.665Z,100864.14
2018-09-02T14:15:26.340Z,100858.14
2018-09-02T14:17:55.099Z,100859.55
2018-09-02T14:20:23.848Z,100859.86
2018-09-02T14:22:52.574Z,100857.73
2018-09-02T14:25:22.844Z,100855.47
2018-09-02T14:27:51.632Z,100854.37
2018-09-02T14:30:24.341Z,100849.81
2018-09-02T14:32:53.258Z,100843.03
2018-09-02T14:35:22.590Z,100842.64
2018-09-02T14:37:52.183Z,100845.58
2018-09-02T14:40:20.792Z,100841.70
2018-09-02T14:42:49.724Z,100839.82
2018-09-02T14:45:18.766Z,100838.48
2018-09-02T14:47:50.936Z,100840.92
2018-09-02T14:50:19.581Z,100837.13
2018-09-02T14:52:48.472Z,100831.13
2018-09-02T14:55:17.464Z,100839.30
2018-09-02T14:57:46.660Z,100832.44
2018-09-02T15:00:15.452Z,100833.71
2018-09-02T15:02:46.638Z,100837.17
2018-09-02T15:05:17.318Z,100842.09
2018-09-02T15:07:49.301Z,100838.27
2018-09-02T15:10:18.953Z,100848.52
2018-09-02T15:12:54.916Z,100849.55
2018-09-02T15:15:27.788Z,100857.55
2018-09-02T15:17:57.178Z,100847.67
2018-09-02T15:20:26.027Z,100853.05
2018-09-02T15:22:55.865Z,100850.83
2018-09-02T15:25:24.417Z,100858.11
2018-09-02T15:27:53.094Z,100841.91
2018-09-02T15:30:22.406Z,100847.85
2018-09-02T15:32:51.056Z,100842.41
2018-09-02T15:35:19.819Z,100840.25
2018-09-02T15:37:48.406Z,100834.88
2018-09-02T15:40:17.027Z,100833.00
2018-09-02T15:42:45.661Z,100829.99
2018-09-02T15:45:14.350Z,100833.95
2018-09-02T15:47:42.972Z,100834.48
2018-09-02T15:50:11.629Z,100834.17
2018-09-02T15:52:40.216Z,100829.85
2018-09-02T15:55:08.918Z,100834.59
2018-09-02T15:57:37.493Z,100831.91
2018-09-02T16:00:07.003Z,100831.52
2018-09-02T16:02:35.561Z,100824.27
2018-09-02T16:05:03.999Z,100826.14
2018-09-02T16:07:33.177Z,100827.16
2018-09-02T16:10:02.761Z,100825.53
2018-09-02T16:12:31.751Z,100832.47
2018-09-02T16:15:00.458Z,100828.22
2018-09-02T16:17:29.533Z,100825.04
2018-09-02T16:19:58.179Z,100823.94
2018-09-02T16:22:27.253Z,100825.28
2018-09-02T16:24:56.100Z,100820.37
2018-09-02T16:27:24.844Z,100827.48
2018-09-02T16:29:53.695Z,100819.66
2018-09-02T16:32:22.453Z,100828.44
2018-09-02T16:34:51.175Z,100820.37
2018-09-02T16:37:19.885Z,100821.96
2018-09-02T16:39:48.675Z,100813.89
2018-09-02T16:42:17.588Z,100810.89
2018-09-02T16:44:46.333Z,100801.44
2018-09-02T16:47:15.090Z,100807.38
2018-09-02T16:49:43.753Z,100807.30
2018-09-02T16:52:12.369Z,100803.20
2018-09-02T16:54:41.068Z,100813.63
2018-09-02T16:57:09.872Z,100801.53
2018-09-02T16:59:38.433Z,100806.91
2018-09-02T17:02:07.145Z,100811.19
2018-09-02T17:04:37.913Z,100806.66
2018-09-02T17:07:06.364Z,100799.09
2018-09-02T17:09:35.042Z,100791.02
2018-09-02T17:12:03.832Z,100781.61
2018-09-02T17:14:32.299Z,100783.80
2018-09-02T17:17:00.812Z,100791.02
2018-09-02T17:19:32.599Z,100791.80
2018-09-02T17:22:01.290Z,100789.92
2018-09-02T17:24:29.801Z,100793.14
2018-09-02T17:26:58.346Z,100788.97
2018-09-02T17:29:26.860Z,100795.12
2018-09-02T17:31:55.444Z,100791.66
2018-09-02T17:34:24.046Z,100793.00
2018-09-02T17:36:52.785Z,100790.07
2018-09-02T17:39:21.323Z,100789.75
2018-09-02T17:41:49.843Z,100790.78
2018-09-02T17:44:18.364Z,100792.20
2018-09-02T17:46:46.887Z,100790.68
2018-09-02T17:49:15.907Z,100795.59
2018-09-02T17:51:44.492Z,100792.70
2018-09-02T17:54:13.147Z,100789.23
2018-09-02T17:56:41.801Z,100791.93
2018-09-02T17:59:10.398Z,100791.56
2018-09-02T18:01:38.969Z,100794.83
2018-09-02T18:04:07.450Z,100793.03
2018-09-02T18:06:35.907Z,100796.56
2018-09-02T18:09:06.237Z,100784.72
2018-09-02T18:11:35.060Z,100786.06
2018-09-02T18:14:03.549Z,100799.25
2018-09-02T18:16:32.269Z,100801.41
2018-09-02T18:19:00.785Z,100786.37
2018-09-02T18:21:29.495Z,100802.19
2018-09-02T18:23:58.216Z,100801.88
2018-09-02T18:26:26.787Z,100797.06
2018-09-02T18:28:56.035Z,100798.41
2018-09-02T18:31:24.747Z,100792.14
2018-09-02T18:33:53.177Z,100783.38
2018-09-02T18:36:21.749Z,100787.65
2018-09-02T18:38:50.357Z,100783.62
2018-09-02T18:41:18.819Z,100778.00
2018-09-02T18:43:47.613Z,100770.95
2018-09-02T18:46:17.443Z,100774.91
2018-09-02T18:48:45.895Z,100773.33
2018-09-02T18:51:14.543Z,100765.33
2018-09-02T18:53:43.031Z,100763.45
2018-09-02T18:56:11.519Z,100761.87
2018-09-02T18:58:40.013Z,100755.92
2018-09-02T19:01:08.640Z,100751.89
2018-09-02T19:03:37.115Z,100752.06
2018-09-02T19:06:05.740Z,100748.91
2018-09-02T19:08:34.259Z,100746.52
2018-09-02T19:11:02.813Z,100737.67
2018-09-02T19:13:31.318Z,100738.45
2018-09-02T19:16:01.335Z,100738.37
2018-09-02T19:18:31.593Z,100739.97
2018-09-02T19:21:01.065Z,100731.58
2018-09-02T19:23:30.463Z,100735.34
2018-09-02T19:25:59.283Z,100725.37
2018-09-02T19:28:27.745Z,100728.84
2018-09-02T19:30:57.234Z,100729.97
2018-09-02T19:33:25.989Z,100725.17
2018-09-02T19:35:55.845Z,100722.48
2018-09-02T19:38:24.917Z,100720.61
2018-09-02T19:40:53.541Z,100721.14
2018-09-02T19:43:22.066Z,100720.69
2018-09-02T19:45:50.609Z,100722.81
2018-09-02T19:48:19.442Z,100714.74
2018-09-02T19:50:48.025Z,100716.87
2018-09-02T19:53:16.759Z,100725.81
2018-09-02T19:55:45.312Z,100720.52
2018-09-02T19:58:13.819Z,100725.23
2018-09-02T20:00:42.279Z,100717.17
2018-09-02T20:03:11.036Z,100717.17
2018-09-02T20:05:39.489Z,100722.80
2018-09-02T20:08:08.009Z,100720.11
2018-09-02T20:10:36.533Z,100716.00
2018-09-02T20:13:05.101Z,100713.38
2018-09-02T20:15:33.563Z,100714.97
2018-09-02T20:18:03.045Z,100717.42
2018-09-02T20:20:32.205Z,100713.62
2018-09-02T20:23:00.736Z,100715.22
2018-09-02T20:25:29.114Z,100712.53
2018-09-02T20:27:57.674Z,100712.28
2018-09-02T20:30:26.768Z,100711.27
2018-09-02T20:32:55.267Z,100702.95
2018-09-02T20:35:23.780Z,100705.72
2018-09-02T20:37:52.851Z,100708.66
2018-09-02T20:40:21.363Z,100701.61
2018-09-02T20:42:50.006Z,100695.06
2018-09-02T20:45:18.462Z,100691.48
2018-09-02T20:47:46.944Z,100693.72
2018-09-02T20:50:15.457Z,100693.47
2018-09-02T20:52:44.359Z,100691.80
2018-09-02T20:55:12.919Z,100689.12
2018-09-02T20:57:41.477Z,100686.34
2018-09-02T21:00:09.939Z,100681.70
2018-09-02T21:02:38.555Z,100677.34
2018-09-02T21:05:07.018Z,100679.78
2018-09-02T21:07:35.593Z,100682.47
2018-09-02T21:10:04.093Z,100672.91
2018-09-02T21:12:32.685Z,100677.25
2018-09-02T21:15:01.211Z,100667.77
2018-09-02T21:17:29.712Z,100668.95
2018-09-02T21:19:58.129Z,100664.45
2018-09-02T21:22:26.679Z,100660.19
2018-09-02T21:24:55.242Z,100662.55
2018-09-02T21:27:23.735Z,100652.82
2018-09-02T21:29:52.187Z,100654.27
2018-09-02T21:32:21.221Z,100654.11
2018-09-02T21:34:49.880Z,100646.13
2018-09-02T21:37:18.339Z,100642.17
2018-09-02T21:39:46.848Z,100643.44
2018-09-02T21:42:15.317Z,100633.14
2018-09-02T21:44:43.719Z,100628.02
2018-09-02T21:47:12.185Z,100619.95
2018-09-02T21:49:40.694Z,100626.66
2018-09-02T21:52:09.275Z,100614.04
2018-09-02T21:54:37.758Z,100610.09
2018-09-02T21:57:06.282Z,100603.73
2018-09-02T21:59:35.120Z,100604.30
2018-09-02T22:02:03.648Z,100598.36
2018-09-02T22:04:32.098Z,100598.93
2018-09-02T22:07:00.494Z,100596.08
2018-09-02T22:09:29.028Z,100605.48
2018-09-02T22:11:57.505Z,100600.67
2018-09-02T22:14:26.329Z,100599.33
2018-09-02T22:16:54.737Z,100591.73
2018-09-02T22:19:23.362Z,100587.94
2018-09-02T22:21:51.763Z,100589.45
2018-09-02T22:24:20.245Z,100584.92
2018-09-02T22:26:48.759Z,100579.47
2018-09-02T22:29:17.283Z,100578.70
2018-09-02T22:31:45.715Z,100575.45
2018-09-02T22:34:14.205Z,100574.42
2018-09-02T22:36:42.688Z,100572.38
2018-09-02T22:39:11.243Z,100568.67
2018-09-02T22:41:39.848Z,100568.35
2018-09-02T22:44:08.655Z,100569.62
2018-09-02T22:46:37.061Z,100573.97
2018-09-02T22:49:05.501Z,100566.69
2018-09-02T22:51:34.192Z,100562.89
2018-09-02T22:54:02.646Z,100554.84
2018-09-02T22:56:31.091Z,100558.55
2018-09-02T22:58:59.520Z,100556.88
2018-09-02T23:01:28.145Z,100555.29
2018-09-02T23:03:56.525Z,100565.50
2018-09-02T23:06:24.949Z,100565.91
2018-09-02T23:08:53.341Z,100559.80
2018-09-02T23:11:22.191Z,100552.06
2018-09-02T23:13:50.737Z,100549.78
2018-09-02T23:16:19.195Z,100538.15
2018-09-02T23:18:47.651Z,100530.33
2018-09-02T23:21:16.075Z,100530.90
2018-09-02T23:23:44.809Z,100518.08
2018-09-02T23:26:13.256Z,100519.67
2018-09-02T23:28:41.762Z,100512.33
2018-09-02T23:31:10.203Z,100503.47
2018-09-02T23:33:38.666Z,100519.34
2018-09-02T23:36:07.183Z,100523.24
2018-09-02T23:38:35.618Z,100519.83
2018-09-02T23:41:04.171Z,100522.06
2018-09-02T23:43:32.636Z,100522.70
2018-09-02T23:46:01.080Z,100529.08
2018-09-02T23:48:30.540Z,100512.72
2018-09-02T23:50:59.296Z,100510.28
2018-09-02T23:53:27.865Z,100518.57
2018-09-02T23:55:56.325Z,100510.52
2018-09-02T23:58:24.844Z,100508.72
